sensor_id;sensor_type;location;lat;lon;timestamp;P1;durP1;ratioP1;P2;durP2;ratioP2
12966;SDS011;6548;49.996;8.238;2023-08-12T00:00:20;8.68;;;6.40;;
12966;SDS011;6548;49.996;8.238;2023-08-12T00:02:46;9.10;;;6.07;;
12966;SDS011;6548;49.996;8.238;2023-08-12T00:05:12;8.55;;;6.10;;
12966;SDS011;6548;49.996;8.238;2023-08-12T00:07:38;8.95;;;6.03;;
12966;SDS011;6548;49.996;8.238;2023-08-12T00:10:08;8.30;;;6.18;;
12966;SDS011;6548;49.996;8.238;2023-08-12T00:12:35;7.30;;;6.03;;
12966;SDS011;6548;49.996;8.238;2023-08-12T00:15:01;11.32;;;6.22;;
12966;SDS011;6548;49.996;8.238;2023-08-12T00:17:29;9.05;;;7.00;;
12966;SDS011;6548;49.996;8.238;2023-08-12T00:19:54;8.57;;;6.60;;
12966;SDS011;6548;49.996;8.238;2023-08-12T00:22:20;10.20;;;6.55;;
12966;SDS011;6548;49.996;8.238;2023-08-12T00:24:46;7.20;;;6.13;;
12966;SDS011;6548;49.996;8.238;2023-08-12T00:27:12;9.55;;;6.18;;
12966;SDS011;6548;49.996;8.238;2023-08-12T00:29:37;8.02;;;6.15;;
12966;SDS011;6548;49.996;8.238;2023-08-12T00:32:04;10.48;;;6.22;;
12966;SDS011;6548;49.996;8.238;2023-08-12T00:34:30;11.98;;;6.43;;
12966;SDS011;6548;49.996;8.238;2023-08-12T00:36:55;8.07;;;6.35;;
12966;SDS011;6548;49.996;8.238;2023-08-12T00:39:21;6.72;;;5.45;;
12966;SDS011;6548;49.996;8.238;2023-08-12T00:41:46;7.00;;;6.30;;
12966;SDS011;6548;49.996;8.238;2023-08-12T00:44:12;8.82;;;6.43;;
12966;SDS011;6548;49.996;8.238;2023-08-12T00:46:40;7.47;;;6.47;;
12966;SDS011;6548;49.996;8.238;2023-08-12T00:49:07;8.43;;;5.72;;
12966;SDS011;6548;49.996;8.238;2023-08-12T00:51:33;11.23;;;6.63;;
12966;SDS011;6548;49.996;8.238;2023-08-12T00:54:00;8.10;;;6.32;;
12966;SDS011;6548;49.996;8.238;2023-08-12T00:56:30;10.85;;;6.28;;
12966;SDS011;6548;49.996;8.238;2023-08-12T00:58:56;7.65;;;6.43;;
12966;SDS011;6548;49.996;8.238;2023-08-12T01:01:22;8.60;;;6.07;;
12966;SDS011;6548;49.996;8.238;2023-08-12T01:03:48;8.95;;;6.28;;
12966;SDS011;6548;49.996;8.238;2023-08-12T01:06:13;8.43;;;6.30;;
12966;SDS011;6548;49.996;8.238;2023-08-12T01:08:39;9.25;;;6.15;;
12966;SDS011;6548;49.996;8.238;2023-08-12T01:11:21;6.85;;;6.13;;
12966;SDS011;6548;49.996;8.238;2023-08-12T01:13:54;8.48;;;5.93;;
12966;SDS011;6548;49.996;8.238;2023-08-12T01:16:46;6.45;;;5.20;;
12966;SDS011;6548;49.996;8.238;2023-08-12T01:19:32;8.63;;;5.78;;
12966;SDS011;6548;49.996;8.238;2023-08-12T01:22:01;6.88;;;5.03;;
12966;SDS011;6548;49.996;8.238;2023-08-12T01:24:33;10.68;;;5.88;;
12966;SDS011;6548;49.996;8.238;2023-08-12T01:27:03;6.85;;;4.82;;
12966;SDS011;6548;49.996;8.238;2023-08-12T01:29:30;8.32;;;5.93;;
12966;SDS011;6548;49.996;8.238;2023-08-12T01:32:09;9.23;;;6.28;;
12966;SDS011;6548;49.996;8.238;2023-08-12T01:35:14;8.63;;;5.70;;
12966;SDS011;6548;49.996;8.238;2023-08-12T01:37:39;8.65;;;6.13;;
12966;SDS011;6548;49.996;8.238;2023-08-12T01:40:07;8.80;;;6.05;;
12966;SDS011;6548;49.996;8.238;2023-08-12T01:42:35;6.47;;;5.72;;
12966;SDS011;6548;49.996;8.238;2023-08-12T01:45:02;9.18;;;5.22;;
12966;SDS011;6548;49.996;8.238;2023-08-12T01:47:28;7.40;;;6.05;;
12966;SDS011;6548;49.996;8.238;2023-08-12T01:49:54;10.48;;;5.30;;
12966;SDS011;6548;49.996;8.238;2023-08-12T01:52:20;8.13;;;5.80;;
12966;SDS011;6548;49.996;8.238;2023-08-12T01:54:46;9.32;;;5.78;;
12966;SDS011;6548;49.996;8.238;2023-08-12T01:57:11;8.48;;;5.68;;
12966;SDS011;6548;49.996;8.238;2023-08-12T01:59:37;6.65;;;5.28;;
12966;SDS011;6548;49.996;8.238;2023-08-12T02:02:03;9.05;;;6.35;;
12966;SDS011;6548;49.996;8.238;2023-08-12T02:04:30;10.38;;;6.05;;
12966;SDS011;6548;49.996;8.238;2023-08-12T02:06:56;8.68;;;6.28;;
12966;SDS011;6548;49.996;8.238;2023-08-12T02:09:22;9.88;;;6.18;;
12966;SDS011;6548;49.996;8.238;2023-08-12T02:11:47;7.65;;;6.05;;
12966;SDS011;6548;49.996;8.238;2023-08-12T02:14:14;6.68;;;5.00;;
12966;SDS011;6548;49.996;8.238;2023-08-12T02:16:40;7.70;;;5.55;;
12966;SDS011;6548;49.996;8.238;2023-08-12T02:19:05;8.60;;;5.57;;
12966;SDS011;6548;49.996;8.238;2023-08-12T02:21:31;7.45;;;4.88;;
12966;SDS011;6548;49.996;8.238;2023-08-12T02:23:56;5.93;;;5.32;;
12966;SDS011;6548;49.996;8.238;2023-08-12T02:26:22;7.68;;;4.53;;
12966;SDS011;6548;49.996;8.238;2023-08-12T02:28:48;6.90;;;5.45;;
12966;SDS011;6548;49.996;8.238;2023-08-12T02:31:14;5.97;;;5.38;;
12966;SDS011;6548;49.996;8.238;2023-08-12T02:33:40;7.45;;;5.20;;
12966;SDS011;6548;49.996;8.238;2023-08-12T02:36:06;6.57;;;5.07;;
12966;SDS011;6548;49.996;8.238;2023-08-12T02:38:31;6.18;;;5.35;;
12966;SDS011;6548;49.996;8.238;2023-08-12T02:40:57;9.13;;;5.13;;
12966;SDS011;6548;49.996;8.238;2023-08-12T02:43:22;6.03;;;5.18;;
12966;SDS011;6548;49.996;8.238;2023-08-12T02:45:48;5.95;;;4.65;;
12966;SDS011;6548;49.996;8.238;2023-08-12T02:48:13;7.53;;;5.13;;
12966;SDS011;6548;49.996;8.238;2023-08-12T02:50:39;10.50;;;6.10;;
12966;SDS011;6548;49.996;8.238;2023-08-12T02:53:05;7.20;;;6.00;;
12966;SDS011;6548;49.996;8.238;2023-08-12T02:55:31;9.93;;;6.25;;
12966;SDS011;6548;49.996;8.238;2023-08-12T02:57:59;8.93;;;5.40;;
12966;SDS011;6548;49.996;8.238;2023-08-12T03:00:26;7.45;;;6.57;;
12966;SDS011;6548;49.996;8.238;2023-08-12T03:02:52;9.48;;;6.80;;
12966;SDS011;6548;49.996;8.238;2023-08-12T03:05:18;8.80;;;6.07;;
12966;SDS011;6548;49.996;8.238;2023-08-12T03:07:43;8.88;;;6.82;;
12966;SDS011;6548;49.996;8.238;2023-08-12T03:10:09;10.27;;;6.47;;
12966;SDS011;6548;49.996;8.238;2023-08-12T03:12:35;10.80;;;7.35;;
12966;SDS011;6548;49.996;8.238;2023-08-12T03:15:00;8.80;;;7.03;;
12966;SDS011;6548;49.996;8.238;2023-08-12T03:17:27;10.10;;;7.07;;
12966;SDS011;6548;49.996;8.238;2023-08-12T03:19:52;8.70;;;7.78;;
12966;SDS011;6548;49.996;8.238;2023-08-12T03:22:19;10.98;;;8.43;;
12966;SDS011;6548;49.996;8.238;2023-08-12T03:24:45;9.73;;;7.80;;
12966;SDS011;6548;49.996;8.238;2023-08-12T03:27:11;10.80;;;8.48;;
12966;SDS011;6548;49.996;8.238;2023-08-12T03:29:36;11.27;;;8.65;;
12966;SDS011;6548;49.996;8.238;2023-08-12T03:32:02;12.27;;;9.18;;
12966;SDS011;6548;49.996;8.238;2023-08-12T03:34:28;13.18;;;9.63;;
12966;SDS011;6548;49.996;8.238;2023-08-12T03:36:54;17.95;;;8.50;;
12966;SDS011;6548;49.996;8.238;2023-08-12T03:39:20;13.07;;;8.77;;
12966;SDS011;6548;49.996;8.238;2023-08-12T03:41:45;10.85;;;8.88;;
12966;SDS011;6548;49.996;8.238;2023-08-12T03:44:11;11.13;;;8.93;;
12966;SDS011;6548;49.996;8.238;2023-08-12T03:46:36;15.15;;;9.20;;
12966;SDS011;6548;49.996;8.238;2023-08-12T03:49:02;11.98;;;9.13;;
12966;SDS011;6548;49.996;8.238;2023-08-12T03:51:28;13.18;;;9.80;;
12966;SDS011;6548;49.996;8.238;2023-08-12T03:53:53;13.70;;;9.10;;
12966;SDS011;6548;49.996;8.238;2023-08-12T03:56:19;11.57;;;9.30;;
12966;SDS011;6548;49.996;8.238;2023-08-12T03:58:44;12.38;;;9.95;;
12966;SDS011;6548;49.996;8.238;2023-08-12T04:01:10;11.88;;;8.82;;
12966;SDS011;6548;49.996;8.238;2023-08-12T04:03:35;11.77;;;9.30;;
12966;SDS011;6548;49.996;8.238;2023-08-12T04:06:01;12.52;;;9.00;;
12966;SDS011;6548;49.996;8.238;2023-08-12T04:08:28;13.20;;;9.95;;
12966;SDS011;6548;49.996;8.238;2023-08-12T04:10:53;11.15;;;9.48;;
12966;SDS011;6548;49.996;8.238;2023-08-12T04:13:19;11.23;;;9.05;;
12966;SDS011;6548;49.996;8.238;2023-08-12T04:15:48;12.23;;;10.15;;
12966;SDS011;6548;49.996;8.238;2023-08-12T04:18:15;14.05;;;10.13;;
12966;SDS011;6548;49.996;8.238;2023-08-12T04:20:40;13.70;;;9.57;;
12966;SDS011;6548;49.996;8.238;2023-08-12T04:23:06;11.20;;;9.18;;
12966;SDS011;6548;49.996;8.238;2023-08-12T04:25:31;14.65;;;9.75;;
12966;SDS011;6548;49.996;8.238;2023-08-12T04:27:57;14.38;;;10.18;;
12966;SDS011;6548;49.996;8.238;2023-08-12T04:30:23;15.00;;;10.98;;
12966;SDS011;6548;49.996;8.238;2023-08-12T04:32:49;17.10;;;12.13;;
12966;SDS011;6548;49.996;8.238;2023-08-12T04:35:14;16.15;;;11.48;;
12966;SDS011;6548;49.996;8.238;2023-08-12T04:37:40;13.75;;;11.38;;
12966;SDS011;6548;49.996;8.238;2023-08-12T04:40:05;16.48;;;12.18;;
12966;SDS011;6548;49.996;8.238;2023-08-12T04:42:34;14.65;;;11.32;;
12966;SDS011;6548;49.996;8.238;2023-08-12T04:45:00;14.55;;;11.30;;
12966;SDS011;6548;49.996;8.238;2023-08-12T04:47:25;14.55;;;10.77;;
12966;SDS011;6548;49.996;8.238;2023-08-12T04:49:51;14.63;;;10.43;;
12966;SDS011;6548;49.996;8.238;2023-08-12T04:52:17;17.30;;;11.48;;
12966;SDS011;6548;49.996;8.238;2023-08-12T04:54:43;13.95;;;10.90;;
12966;SDS011;6548;49.996;8.238;2023-08-12T04:57:08;12.95;;;9.95;;
12966;SDS011;6548;49.996;8.238;2023-08-12T04:59:34;13.10;;;9.85;;
12966;SDS011;6548;49.996;8.238;2023-08-12T05:01:59;16.25;;;11.15;;
12966;SDS011;6548;49.996;8.238;2023-08-12T05:04:25;13.07;;;9.48;;
12966;SDS011;6548;49.996;8.238;2023-08-12T05:06:50;16.13;;;11.18;;
12966;SDS011;6548;49.996;8.238;2023-08-12T05:09:16;13.15;;;10.70;;
12966;SDS011;6548;49.996;8.238;2023-08-12T05:11:41;17.15;;;10.55;;
12966;SDS011;6548;49.996;8.238;2023-08-12T05:14:07;14.15;;;11.30;;
12966;SDS011;6548;49.996;8.238;2023-08-12T05:16:33;11.88;;;10.15;;
12966;SDS011;6548;49.996;8.238;2023-08-12T05:18:58;13.77;;;10.30;;
12966;SDS011;6548;49.996;8.238;2023-08-12T05:21:24;14.43;;;11.23;;
12966;SDS011;6548;49.996;8.238;2023-08-12T05:23:49;14.48;;;10.35;;
12966;SDS011;6548;49.996;8.238;2023-08-12T05:26:15;16.70;;;11.05;;
12966;SDS011;6548;49.996;8.238;2023-08-12T05:28:40;14.73;;;11.15;;
12966;SDS011;6548;49.996;8.238;2023-08-12T05:31:07;19.13;;;11.07;;
12966;SDS011;6548;49.996;8.238;2023-08-12T05:33:33;13.48;;;10.27;;
12966;SDS011;6548;49.996;8.238;2023-08-12T05:35:58;16.33;;;10.70;;
12966;SDS011;6548;49.996;8.238;2023-08-12T05:38:24;14.95;;;10.65;;
12966;SDS011;6548;49.996;8.238;2023-08-12T05:40:49;12.45;;;10.55;;
12966;SDS011;6548;49.996;8.238;2023-08-12T05:43:15;14.50;;;10.38;;
12966;SDS011;6548;49.996;8.238;2023-08-12T05:45:40;15.57;;;11.02;;
12966;SDS011;6548;49.996;8.238;2023-08-12T05:48:06;14.32;;;11.10;;
12966;SDS011;6548;49.996;8.238;2023-08-12T05:50:32;14.98;;;10.00;;
12966;SDS011;6548;49.996;8.238;2023-08-12T05:52:58;15.77;;;9.82;;
12966;SDS011;6548;49.996;8.238;2023-08-12T05:55:23;13.00;;;9.88;;
12966;SDS011;6548;49.996;8.238;2023-08-12T05:57:49;14.52;;;9.98;;
12966;SDS011;6548;49.996;8.238;2023-08-12T06:00:14;12.85;;;9.10;;
12966;SDS011;6548;49.996;8.238;2023-08-12T06:02:40;13.75;;;9.90;;
12966;SDS011;6548;49.996;8.238;2023-08-12T06:05:05;15.43;;;9.73;;
12966;SDS011;6548;49.996;8.238;2023-08-12T06:07:31;11.65;;;8.90;;
12966;SDS011;6548;49.996;8.238;2023-08-12T06:09:57;11.95;;;9.02;;
12966;SDS011;6548;49.996;8.238;2023-08-12T06:12:22;12.55;;;8.70;;
12966;SDS011;6548;49.996;8.238;2023-08-12T06:14:48;16.30;;;9.05;;
12966;SDS011;6548;49.996;8.238;2023-08-12T06:17:13;12.65;;;9.95;;
12966;SDS011;6548;49.996;8.238;2023-08-12T06:19:39;14.32;;;8.48;;
12966;SDS011;6548;49.996;8.238;2023-08-12T06:22:05;11.07;;;9.10;;
12966;SDS011;6548;49.996;8.238;2023-08-12T06:24:30;10.45;;;8.70;;
12966;SDS011;6548;49.996;8.238;2023-08-12T06:26:56;14.45;;;9.90;;
12966;SDS011;6548;49.996;8.238;2023-08-12T06:29:22;13.23;;;10.18;;
12966;SDS011;6548;49.996;8.238;2023-08-12T06:31:47;13.48;;;9.55;;
12966;SDS011;6548;49.996;8.238;2023-08-12T06:34:13;14.15;;;9.68;;
12966;SDS011;6548;49.996;8.238;2023-08-12T06:36:38;12.02;;;9.55;;
12966;SDS011;6548;49.996;8.238;2023-08-12T06:39:04;14.57;;;9.82;;
12966;SDS011;6548;49.996;8.238;2023-08-12T06:41:29;11.90;;;8.95;;
12966;SDS011;6548;49.996;8.238;2023-08-12T06:43:55;10.90;;;9.45;;
12966;SDS011;6548;49.996;8.238;2023-08-12T06:46:21;12.77;;;9.38;;
12966;SDS011;6548;49.996;8.238;2023-08-12T06:48:46;12.02;;;9.60;;
12966;SDS011;6548;49.996;8.238;2023-08-12T06:51:12;13.13;;;9.75;;
12966;SDS011;6548;49.996;8.238;2023-08-12T06:53:38;12.25;;;9.60;;
12966;SDS011;6548;49.996;8.238;2023-08-12T06:56:04;11.20;;;9.25;;
12966;SDS011;6548;49.996;8.238;2023-08-12T06:58:30;9.43;;;8.43;;
12966;SDS011;6548;49.996;8.238;2023-08-12T07:00:55;10.75;;;9.02;;
12966;SDS011;6548;49.996;8.238;2023-08-12T07:03:22;11.98;;;8.27;;
12966;SDS011;6548;49.996;8.238;2023-08-12T07:05:47;11.43;;;9.13;;
12966;SDS011;6548;49.996;8.238;2023-08-12T07:08:13;15.15;;;11.15;;
12966;SDS011;6548;49.996;8.238;2023-08-12T07:10:39;12.20;;;9.73;;
12966;SDS011;6548;49.996;8.238;2023-08-12T07:13:05;11.05;;;9.55;;
12966;SDS011;6548;49.996;8.238;2023-08-12T07:15:31;13.00;;;10.40;;
12966;SDS011;6548;49.996;8.238;2023-08-12T07:17:56;9.68;;;8.65;;
12966;SDS011;6548;49.996;8.238;2023-08-12T07:20:22;9.73;;;8.25;;
12966;SDS011;6548;49.996;8.238;2023-08-12T07:22:49;10.73;;;9.43;;
12966;SDS011;6548;49.996;8.238;2023-08-12T07:25:15;14.90;;;9.25;;
12966;SDS011;6548;49.996;8.238;2023-08-12T07:27:40;11.50;;;9.23;;
12966;SDS011;6548;49.996;8.238;2023-08-12T07:30:06;11.95;;;8.77;;
12966;SDS011;6548;49.996;8.238;2023-08-12T07:32:32;10.13;;;8.50;;
12966;SDS011;6548;49.996;8.238;2023-08-12T07:34:58;13.73;;;9.07;;
12966;SDS011;6548;49.996;8.238;2023-08-12T07:37:24;9.90;;;7.97;;
12966;SDS011;6548;49.996;8.238;2023-08-12T07:39:50;9.73;;;7.25;;
12966;SDS011;6548;49.996;8.238;2023-08-12T07:42:16;8.07;;;6.93;;
12966;SDS011;6548;49.996;8.238;2023-08-12T07:44:41;10.70;;;7.85;;
12966;SDS011;6548;49.996;8.238;2023-08-12T07:47:07;9.40;;;8.35;;
12966;SDS011;6548;49.996;8.238;2023-08-12T07:49:32;9.95;;;7.63;;
12966;SDS011;6548;49.996;8.238;2023-08-12T07:51:58;11.52;;;7.90;;
12966;SDS011;6548;49.996;8.238;2023-08-12T07:54:23;9.55;;;7.90;;
12966;SDS011;6548;49.996;8.238;2023-08-12T07:56:49;10.00;;;8.48;;
12966;SDS011;6548;49.996;8.238;2023-08-12T07:59:14;9.07;;;8.18;;
12966;SDS011;6548;49.996;8.238;2023-08-12T08:01:41;10.65;;;8.57;;
12966;SDS011;6548;49.996;8.238;2023-08-12T08:04:06;10.57;;;7.82;;
12966;SDS011;6548;49.996;8.238;2023-08-12T08:06:32;12.65;;;9.10;;
12966;SDS011;6548;49.996;8.238;2023-08-12T08:08:58;12.00;;;7.72;;
12966;SDS011;6548;49.996;8.238;2023-08-12T08:11:24;8.90;;;7.45;;
12966;SDS011;6548;49.996;8.238;2023-08-12T08:13:49;9.60;;;8.00;;
12966;SDS011;6548;49.996;8.238;2023-08-12T08:16:15;10.63;;;7.93;;
12966;SDS011;6548;49.996;8.238;2023-08-12T08:18:40;7.80;;;6.78;;
12966;SDS011;6548;49.996;8.238;2023-08-12T08:21:06;7.25;;;6.53;;
12966;SDS011;6548;49.996;8.238;2023-08-12T08:23:32;10.50;;;6.05;;
12966;SDS011;6548;49.996;8.238;2023-08-12T08:25:57;5.85;;;5.22;;
12966;SDS011;6548;49.996;8.238;2023-08-12T08:28:23;7.20;;;5.75;;
12966;SDS011;6548;49.996;8.238;2023-08-12T08:30:48;7.20;;;5.50;;
12966;SDS011;6548;49.996;8.238;2023-08-12T08:33:14;6.85;;;4.85;;
12966;SDS011;6548;49.996;8.238;2023-08-12T08:35:39;6.22;;;4.95;;
12966;SDS011;6548;49.996;8.238;2023-08-12T08:38:05;6.75;;;5.75;;
12966;SDS011;6548;49.996;8.238;2023-08-12T08:40:30;5.05;;;4.45;;
12966;SDS011;6548;49.996;8.238;2023-08-12T08:42:56;6.63;;;4.95;;
12966;SDS011;6548;49.996;8.238;2023-08-12T08:45:26;6.90;;;4.82;;
12966;SDS011;6548;49.996;8.238;2023-08-12T08:47:54;5.78;;;5.28;;
12966;SDS011;6548;49.996;8.238;2023-08-12T08:50:20;7.65;;;5.70;;
12966;SDS011;6548;49.996;8.238;2023-08-12T08:52:46;17.52;;;7.60;;
12966;SDS011;6548;49.996;8.238;2023-08-12T08:55:12;9.05;;;7.35;;
12966;SDS011;6548;49.996;8.238;2023-08-12T08:57:39;11.93;;;9.20;;
12966;SDS011;6548;49.996;8.238;2023-08-12T09:00:07;10.35;;;8.13;;
12966;SDS011;6548;49.996;8.238;2023-08-12T09:02:34;10.57;;;8.85;;
12966;SDS011;6548;49.996;8.238;2023-08-12T09:05:01;11.30;;;8.35;;
12966;SDS011;6548;49.996;8.238;2023-08-12T09:07:27;12.68;;;8.68;;
12966;SDS011;6548;49.996;8.238;2023-08-12T09:09:54;10.15;;;7.75;;
12966;SDS011;6548;49.996;8.238;2023-08-12T09:12:21;9.52;;;7.47;;
12966;SDS011;6548;49.996;8.238;2023-08-12T09:14:47;7.72;;;6.93;;
12966;SDS011;6548;49.996;8.238;2023-08-12T09:17:12;8.55;;;7.35;;
12966;SDS011;6548;49.996;8.238;2023-08-12T09:19:39;10.32;;;7.18;;
12966;SDS011;6548;49.996;8.238;2023-08-12T09:22:05;7.68;;;6.65;;
12966;SDS011;6548;49.996;8.238;2023-08-12T09:24:32;10.25;;;6.88;;
12966;SDS011;6548;49.996;8.238;2023-08-12T09:26:57;7.75;;;6.68;;
12966;SDS011;6548;49.996;8.238;2023-08-12T09:29:23;7.93;;;6.50;;
12966;SDS011;6548;49.996;8.238;2023-08-12T09:31:54;11.05;;;9.50;;
12966;SDS011;6548;49.996;8.238;2023-08-12T09:34:19;11.15;;;9.40;;
12966;SDS011;6548;49.996;8.238;2023-08-12T09:36:45;10.05;;;9.00;;
12966;SDS011;6548;49.996;8.238;2023-08-12T09:39:12;11.82;;;9.52;;
12966;SDS011;6548;49.996;8.238;2023-08-12T09:41:39;11.15;;;8.75;;
12966;SDS011;6548;49.996;8.238;2023-08-12T09:44:05;12.85;;;9.07;;
12966;SDS011;6548;49.996;8.238;2023-08-12T09:46:32;20.40;;;8.50;;
12966;SDS011;6548;49.996;8.238;2023-08-12T09:48:58;12.23;;;8.68;;
12966;SDS011;6548;49.996;8.238;2023-08-12T09:51:23;11.40;;;9.73;;
12966;SDS011;6548;49.996;8.238;2023-08-12T09:53:49;11.25;;;9.98;;
12966;SDS011;6548;49.996;8.238;2023-08-12T09:56:17;9.93;;;7.60;;
12966;SDS011;6548;49.996;8.238;2023-08-12T09:58:46;7.68;;;5.18;;
12966;SDS011;6548;49.996;8.238;2023-08-12T10:01:13;5.45;;;4.82;;
12966;SDS011;6548;49.996;8.238;2023-08-12T10:03:41;5.35;;;4.85;;
12966;SDS011;6548;49.996;8.238;2023-08-12T10:06:10;6.38;;;5.00;;
12966;SDS011;6548;49.996;8.238;2023-08-12T10:08:37;6.18;;;5.60;;
12966;SDS011;6548;49.996;8.238;2023-08-12T10:11:02;6.03;;;5.13;;
12966;SDS011;6548;49.996;8.238;2023-08-12T10:13:28;5.75;;;5.25;;
12966;SDS011;6548;49.996;8.238;2023-08-12T10:15:54;7.78;;;4.95;;
12966;SDS011;6548;49.996;8.238;2023-08-12T10:18:20;5.50;;;4.80;;
12966;SDS011;6548;49.996;8.238;2023-08-12T10:20:48;5.38;;;4.18;;
12966;SDS011;6548;49.996;8.238;2023-08-12T10:23:15;6.05;;;3.47;;
12966;SDS011;6548;49.996;8.238;2023-08-12T10:25:43;3.72;;;2.80;;
12966;SDS011;6548;49.996;8.238;2023-08-12T10:28:09;3.67;;;2.40;;
12966;SDS011;6548;49.996;8.238;2023-08-12T10:30:36;4.85;;;2.10;;
12966;SDS011;6548;49.996;8.238;2023-08-12T10:33:02;5.32;;;2.40;;
12966;SDS011;6548;49.996;8.238;2023-08-12T10:38:26;4.95;;;2.25;;
12966;SDS011;6548;49.996;8.238;2023-08-12T10:40:51;3.20;;;1.90;;
12966;SDS011;6548;49.996;8.238;2023-08-12T10:43:17;3.15;;;2.42;;
12966;SDS011;6548;49.996;8.238;2023-08-12T10:45:44;6.45;;;2.70;;
12966;SDS011;6548;49.996;8.238;2023-08-12T10:48:16;3.33;;;2.60;;
12966;SDS011;6548;49.996;8.238;2023-08-12T10:50:56;4.10;;;2.47;;
12966;SDS011;6548;49.996;8.238;2023-08-12T10:55:57;5.47;;;3.10;;
12966;SDS011;6548;49.996;8.238;2023-08-12T10:58:27;5.07;;;3.15;;
12966;SDS011;6548;49.996;8.238;2023-08-12T11:00:54;6.65;;;3.63;;
12966;SDS011;6548;49.996;8.238;2023-08-12T11:03:21;4.20;;;2.33;;
12966;SDS011;6548;49.996;8.238;2023-08-12T11:05:46;5.78;;;2.70;;
12966;SDS011;6548;49.996;8.238;2023-08-12T11:08:12;3.50;;;2.78;;
12966;SDS011;6548;49.996;8.238;2023-08-12T11:10:39;4.03;;;2.65;;
12966;SDS011;6548;49.996;8.238;2023-08-12T11:13:05;5.80;;;2.80;;
12966;SDS011;6548;49.996;8.238;2023-08-12T11:18:04;4.05;;;2.60;;
12966;SDS011;6548;49.996;8.238;2023-08-12T11:20:33;4.22;;;2.40;;
12966;SDS011;6548;49.996;8.238;2023-08-12T11:22:59;5.40;;;2.35;;
12966;SDS011;6548;49.996;8.238;2023-08-12T11:25:27;3.58;;;2.35;;
12966;SDS011;6548;49.996;8.238;2023-08-12T11:27:54;3.97;;;2.20;;
12966;SDS011;6548;49.996;8.238;2023-08-12T11:30:20;4.82;;;2.10;;
12966;SDS011;6548;49.996;8.238;2023-08-12T11:32:48;2.53;;;2.15;;
12966;SDS011;6548;49.996;8.238;2023-08-12T11:35:15;2.30;;;2.10;;
12966;SDS011;6548;49.996;8.238;2023-08-12T11:37:48;3.78;;;2.80;;
12966;SDS011;6548;49.996;8.238;2023-08-12T11:40:15;3.63;;;2.17;;
12966;SDS011;6548;49.996;8.238;2023-08-12T11:42:43;2.25;;;1.83;;
12966;SDS011;6548;49.996;8.238;2023-08-12T11:45:10;3.88;;;2.40;;
12966;SDS011;6548;49.996;8.238;2023-08-12T11:47:37;2.30;;;2.10;;
12966;SDS011;6548;49.996;8.238;2023-08-12T11:50:08;6.25;;;2.90;;
12966;SDS011;6548;49.996;8.238;2023-08-12T11:52:38;5.25;;;2.22;;
12966;SDS011;6548;49.996;8.238;2023-08-12T11:55:07;3.50;;;2.90;;
12966;SDS011;6548;49.996;8.238;2023-08-12T11:57:34;3.45;;;2.08;;
12966;SDS011;6548;49.996;8.238;2023-08-12T12:00:03;3.35;;;2.30;;
12966;SDS011;6548;49.996;8.238;2023-08-12T12:02:41;4.55;;;2.88;;
12966;SDS011;6548;49.996;8.238;2023-08-12T12:07:41;3.28;;;2.50;;
12966;SDS011;6548;49.996;8.238;2023-08-12T12:10:06;2.50;;;2.30;;
12966;SDS011;6548;49.996;8.238;2023-08-12T12:12:36;3.28;;;2.80;;
12966;SDS011;6548;49.996;8.238;2023-08-12T12:15:02;2.90;;;2.60;;
12966;SDS011;6548;49.996;8.238;2023-08-12T12:17:28;4.07;;;2.28;;
12966;SDS011;6548;49.996;8.238;2023-08-12T12:19:58;3.58;;;2.55;;
12966;SDS011;6548;49.996;8.238;2023-08-12T12:22:31;3.92;;;2.95;;
12966;SDS011;6548;49.996;8.238;2023-08-12T12:24:58;4.43;;;2.40;;
12966;SDS011;6548;49.996;8.238;2023-08-12T12:27:25;3.40;;;2.80;;
12966;SDS011;6548;49.996;8.238;2023-08-12T12:29:52;3.53;;;2.15;;
12966;SDS011;6548;49.996;8.238;2023-08-12T12:32:18;4.70;;;2.47;;
12966;SDS011;6548;49.996;8.238;2023-08-12T12:34:45;3.92;;;2.88;;
12966;SDS011;6548;49.996;8.238;2023-08-12T12:37:11;3.72;;;2.50;;
12966;SDS011;6548;49.996;8.238;2023-08-12T12:39:37;5.43;;;2.65;;
12966;SDS011;6548;49.996;8.238;2023-08-12T12:42:03;4.93;;;2.67;;
12966;SDS011;6548;49.996;8.238;2023-08-12T12:44:29;2.53;;;2.10;;
12966;SDS011;6548;49.996;8.238;2023-08-12T12:46:54;3.10;;;2.28;;
12966;SDS011;6548;49.996;8.238;2023-08-12T12:49:20;4.35;;;2.60;;
12966;SDS011;6548;49.996;8.238;2023-08-12T12:51:46;4.50;;;2.33;;
12966;SDS011;6548;49.996;8.238;2023-08-12T12:54:12;4.18;;;2.63;;
12966;SDS011;6548;49.996;8.238;2023-08-12T12:56:37;5.85;;;2.80;;
12966;SDS011;6548;49.996;8.238;2023-08-12T12:59:03;3.33;;;2.25;;
12966;SDS011;6548;49.996;8.238;2023-08-12T13:01:28;3.97;;;2.60;;
12966;SDS011;6548;49.996;8.238;2023-08-12T13:03:54;2.22;;;1.95;;
12966;SDS011;6548;49.996;8.238;2023-08-12T13:06:19;5.57;;;2.53;;
12966;SDS011;6548;49.996;8.238;2023-08-12T13:08:45;3.80;;;2.58;;
12966;SDS011;6548;49.996;8.238;2023-08-12T13:11:10;3.92;;;2.38;;
12966;SDS011;6548;49.996;8.238;2023-08-12T13:13:36;4.00;;;3.17;;
12966;SDS011;6548;49.996;8.238;2023-08-12T13:16:01;3.08;;;2.20;;
12966;SDS011;6548;49.996;8.238;2023-08-12T13:18:27;7.53;;;2.42;;
12966;SDS011;6548;49.996;8.238;2023-08-12T13:20:53;2.88;;;1.98;;
12966;SDS011;6548;49.996;8.238;2023-08-12T13:23:18;4.03;;;2.28;;
12966;SDS011;6548;49.996;8.238;2023-08-12T13:25:44;2.75;;;1.63;;
12966;SDS011;6548;49.996;8.238;2023-08-12T13:28:09;2.92;;;2.00;;
12966;SDS011;6548;49.996;8.238;2023-08-12T13:30:35;5.07;;;2.17;;
12966;SDS011;6548;49.996;8.238;2023-08-12T13:33:00;3.90;;;2.38;;
12966;SDS011;6548;49.996;8.238;2023-08-12T13:35:27;2.65;;;2.03;;
12966;SDS011;6548;49.996;8.238;2023-08-12T13:37:54;3.15;;;2.47;;
12966;SDS011;6548;49.996;8.238;2023-08-12T13:40:20;4.25;;;2.60;;
12966;SDS011;6548;49.996;8.238;2023-08-12T13:42:46;3.25;;;2.40;;
12966;SDS011;6548;49.996;8.238;2023-08-12T13:45:12;5.03;;;2.58;;
12966;SDS011;6548;49.996;8.238;2023-08-12T13:47:38;3.42;;;2.55;;
12966;SDS011;6548;49.996;8.238;2023-08-12T13:50:04;5.35;;;2.38;;
12966;SDS011;6548;49.996;8.238;2023-08-12T13:52:30;5.45;;;2.83;;
12966;SDS011;6548;49.996;8.238;2023-08-12T13:54:56;3.70;;;2.40;;
12966;SDS011;6548;49.996;8.238;2023-08-12T13:57:21;2.72;;;2.28;;
12966;SDS011;6548;49.996;8.238;2023-08-12T13:59:47;3.55;;;2.45;;
12966;SDS011;6548;49.996;8.238;2023-08-12T14:02:12;3.47;;;2.40;;
12966;SDS011;6548;49.996;8.238;2023-08-12T14:04:38;2.90;;;2.45;;
12966;SDS011;6548;49.996;8.238;2023-08-12T14:07:04;5.25;;;2.40;;
12966;SDS011;6548;49.996;8.238;2023-08-12T14:09:30;5.20;;;2.85;;
12966;SDS011;6548;49.996;8.238;2023-08-12T14:11:55;3.67;;;2.50;;
12966;SDS011;6548;49.996;8.238;2023-08-12T14:14:21;3.40;;;2.60;;
12966;SDS011;6548;49.996;8.238;2023-08-12T14:16:47;3.22;;;2.50;;
12966;SDS011;6548;49.996;8.238;2023-08-12T14:19:13;3.05;;;2.40;;
12966;SDS011;6548;49.996;8.238;2023-08-12T14:21:41;2.72;;;2.45;;
12966;SDS011;6548;49.996;8.238;2023-08-12T14:24:07;3.70;;;2.53;;
12966;SDS011;6548;49.996;8.238;2023-08-12T14:26:33;2.75;;;2.47;;
12966;SDS011;6548;49.996;8.238;2023-08-12T14:28:59;5.00;;;3.13;;
12966;SDS011;6548;49.996;8.238;2023-08-12T14:31:25;5.05;;;2.75;;
12966;SDS011;6548;49.996;8.238;2023-08-12T14:33:51;5.07;;;2.70;;
12966;SDS011;6548;49.996;8.238;2023-08-12T14:36:16;8.30;;;2.78;;
12966;SDS011;6548;49.996;8.238;2023-08-12T14:38:42;4.70;;;2.88;;
12966;SDS011;6548;49.996;8.238;2023-08-12T14:41:07;4.13;;;2.67;;
12966;SDS011;6548;49.996;8.238;2023-08-12T14:43:33;4.85;;;3.30;;
12966;SDS011;6548;49.996;8.238;2023-08-12T14:45:58;6.25;;;3.42;;
12966;SDS011;6548;49.996;8.238;2023-08-12T14:48:24;4.63;;;3.17;;
12966;SDS011;6548;49.996;8.238;2023-08-12T14:50:50;5.40;;;3.13;;
12966;SDS011;6548;49.996;8.238;2023-08-12T14:53:15;3.47;;;3.13;;
12966;SDS011;6548;49.996;8.238;2023-08-12T14:55:41;4.80;;;3.30;;
12966;SDS011;6548;49.996;8.238;2023-08-12T14:58:06;4.53;;;3.50;;
12966;SDS011;6548;49.996;8.238;2023-08-12T15:00:32;4.50;;;3.53;;